Time;durP1;ratioP1;P1;durP2;ratioP2;P2;SDS_P1;SDS_P2;PMS_P1;PMS_P2;Temp;Humidity;BMP_temperature;BMP_pressure;BME280_temperature;BME280_humidity;BME280_pressure;Samples;Min_cycle;Max_cycle;Signal;HPM_P1;HPM_P2
2022/08/03 00:00:54;;;;;;;3.67;1.90;;;;;;;18.99;100.00;96373.72;5079806;28;20211;-69
2022/08/03 00:03:21;;;;;;;3.00;2.00;;;;;;;18.83;100.00;96362.03;5079143;28;20763;-69
2022/08/03 00:05:48;;;;;;;4.15;2.25;;;;;;;18.78;100.00;96370.69;5079828;28;20715;-69
2022/08/03 00:08:14;;;;;;;5.78;2.63;;;;;;;18.82;100.00;96366.53;5079714;28;20207;-69
2022/08/03 00:10:41;;;;;;;2.97;1.95;;;;;;;18.81;100.00;96359.56;5079427;28;20868;-69
2022/08/03 00:13:07;;;;;;;3.40;2.20;;;;;;;18.73;100.00;96357.19;5079528;28;20223;-69
2022/08/03 00:15:35;;;;;;;3.60;2.38;;;;;;;18.60;100.00;96362.69;5076994;28;20207;-69
2022/08/03 00:18:02;;;;;;;4.38;2.03;;;;;;;18.55;100.00;96359.88;5079652;28;21258;-69
2022/08/03 00:20:28;;;;;;;4.43;2.10;;;;;;;18.63;100.00;96361.44;5080325;28;20210;-69
2022/08/03 00:22:55;;;;;;;3.88;2.05;;;;;;;18.82;100.00;96360.41;5078913;28;20615;-69
2022/08/03 00:25:21;;;;;;;5.28;2.35;;;;;;;18.66;100.00;96359.16;5078756;28;20810;-69
2022/08/03 00:27:48;;;;;;;2.75;1.90;;;;;;;18.76;100.00;96361.28;5079661;28;20219;-69
2022/08/03 00:30:14;;;;;;;3.60;2.03;;;;;;;18.76;100.00;96353.28;5079690;28;20246;-69
2022/08/03 00:32:42;;;;;;;2.58;1.80;;;;;;;18.75;100.00;96357.81;5078846;28;20223;-69
2022/08/03 00:35:09;;;;;;;2.20;1.70;;;;;;;18.72;100.00;96354.75;5079370;28;20739;-69
2022/08/03 00:37:35;;;;;;;3.20;2.25;;;;;;;18.88;100.00;96356.84;5079212;28;21010;-69
2022/08/03 00:40:02;;;;;;;3.65;1.80;;;;;;;18.62;100.00;96357.13;5078972;28;20197;-69
2022/08/03 00:42:28;;;;;;;4.07;1.83;;;;;;;18.75;100.00;96352.47;5078911;28;20285;-69
2022/08/03 00:44:55;;;;;;;2.50;1.88;;;;;;;18.76;100.00;96351.44;5078613;28;20207;-68
2022/08/03 00:47:21;;;;;;;3.72;2.00;;;;;;;18.69;100.00;96355.22;5079819;28;20204;-69
2022/08/03 00:49:49;;;;;;;3.67;2.20;;;;;;;18.88;100.00;96357.63;5078937;28;20235;-68
2022/08/03 00:52:16;;;;;;;3.13;1.85;;;;;;;18.80;100.00;96357.94;5078246;28;20224;-69
2022/08/03 00:54:43;;;;;;;5.30;1.90;;;;;;;18.64;100.00;96363.09;5079453;28;20204;-68
2022/08/03 00:57:09;;;;;;;3.33;2.00;;;;;;;18.50;100.00;96354.41;5080025;28;20687;-68
2022/08/03 00:59:37;;;;;;;4.07;2.10;;;;;;;18.50;100.00;96365.06;5078856;28;20204;-69
2022/08/03 01:02:03;;;;;;;4.15;2.03;;;;;;;18.52;100.00;96354.16;5078338;28;20211;-68
2022/08/03 01:04:30;;;;;;;5.55;2.10;;;;;;;18.44;100.00;96357.13;5078683;28;20203;-69
2022/08/03 01:07:06;;;;;;;2.85;2.10;;;;;;;18.40;100.00;96356.75;5078403;28;20229;-69
2022/08/03 01:09:45;;;;;;;4.35;2.25;;;;;;;18.43;100.00;96351.00;5078607;28;20673;-69
2022/08/03 01:12:21;;;;;;;4.25;2.00;;;;;;;18.42;100.00;96354.69;5078690;28;20223;-69
2022/08/03 01:14:55;;;;;;;3.65;2.05;;;;;;;18.45;100.00;96350.78;5078778;28;20276;-69
2022/08/03 01:17:25;;;;;;;3.50;2.10;;;;;;;18.19;100.00;96360.91;5075523;28;20236;-68
2022/08/03 01:19:59;;;;;;;5.07;2.50;;;;;;;18.24;100.00;96350.38;5078791;28;20200;-69
2022/08/03 01:23:00;;;;;;;4.18;2.00;;;;;;;18.58;100.00;96351.44;5078055;28;20235;-69
2022/08/03 01:25:40;;;;;;;3.80;2.15;;;;;;;18.53;100.00;96350.47;5078532;28;20207;-68
2022/08/03 01:28:22;;;;;;;4.43;1.73;;;;;;;18.51;99.87;96347.22;5078370;28;20195;-68
2022/08/03 01:30:53;;;;;;;3.50;1.65;;;;;;;18.47;99.84;96346.03;5078100;28;20219;-68
2022/08/03 01:33:25;;;;;;;4.15;2.15;;;;;;;18.49;100.00;96342.09;5077333;28;20234;-69
2022/08/03 01:35:58;;;;;;;2.53;1.85;;;;;;;18.47;100.00;96346.84;5078324;28;20204;-69
2022/08/03 01:38:29;;;;;;;3.47;2.00;;;;;;;18.48;99.78;96342.31;5078320;28;20204;-69
2022/08/03 01:40:57;;;;;;;2.33;1.92;;;;;;;18.20;100.00;96338.53;5077819;28;20200;-69
2022/08/03 01:43:27;;;;;;;3.55;1.77;;;;;;;18.33;100.00;96351.72;5077487;28;20585;-69
2022/08/03 01:45:56;;;;;;;3.50;2.33;;;;;;;18.34;100.00;96344.31;5077946;28;20678;-69
2022/08/03 01:48:24;;;;;;;3.90;2.50;;;;;;;18.30;100.00;96342.31;5077863;28;20208;-69
2022/08/03 01:50:51;;;;;;;5.68;2.20;;;;;;;18.40;100.00;96343.41;5076743;28;20220;-69
2022/08/03 01:53:20;;;;;;;3.90;1.80;;;;;;;18.42;100.00;96338.69;5077566;28;20484;-69
2022/08/03 01:55:52;;;;;;;3.13;1.83;;;;;;;18.45;100.00;96338.22;5077632;28;20199;-69
2022/08/03 01:58:21;;;;;;;3.65;2.10;;;;;;;18.29;100.00;96337.19;5077853;28;20208;-68
2022/08/03 02:00:49;;;;;;;5.35;2.08;;;;;;;18.16;100.00;96337.31;5077786;28;20417;-69
2022/08/03 02:03:20;;;;;;;3.42;1.98;;;;;;;18.15;100.00;96341.84;5076855;28;20238;-69
2022/08/03 02:05:48;;;;;;;5.88;2.00;;;;;;;18.15;100.00;96341.00;5077213;28;20827;-69
2022/08/03 02:08:17;;;;;;;3.10;2.30;;;;;;;18.13;100.00;96345.75;5078794;28;20203;-69
2022/08/03 02:10:46;;;;;;;3.45;2.28;;;;;;;18.18;100.00;96341.44;5077396;28;20231;-69
2022/08/03 02:13:15;;;;;;;3.22;2.10;;;;;;;18.22;100.00;96347.13;5073379;28;20309;-69
2022/08/03 02:15:43;;;;;;;5.00;2.10;;;;;;;18.17;100.00;96345.13;5074801;28;20195;-69
2022/08/03 02:18:11;;;;;;;5.45;2.22;;;;;;;18.15;100.00;96346.34;5076958;28;20210;-69
2022/08/03 02:20:41;;;;;;;3.28;2.00;;;;;;;18.20;100.00;96333.19;5077136;28;20199;-69
2022/08/03 02:23:08;;;;;;;5.43;2.22;;;;;;;18.20;100.00;96336.69;5076513;28;21280;-69
2022/08/03 02:25:40;;;;;;;2.60;1.75;;;;;;;18.18;99.82;96335.28;5077326;28;20207;-69
2022/08/03 02:28:10;;;;;;;3.40;2.22;;;;;;;17.98;100.00;96331.97;5077114;28;20211;-69
2022/08/03 02:30:39;;;;;;;2.50;1.83;;;;;;;18.13;99.76;96337.75;5076928;28;20223;-68
2022/08/03 02:33:10;;;;;;;3.50;1.92;;;;;;;18.04;100.00;96334.56;5076539;28;21159;-69
2022/08/03 02:35:39;;;;;;;3.42;2.40;;;;;;;18.09;100.00;96333.91;5076826;28;20626;-69
2022/08/03 02:38:08;;;;;;;2.83;2.17;;;;;;;18.09;100.00;96334.72;5077272;28;20206;-69
2022/08/03 02:40:36;;;;;;;3.78;2.13;;;;;;;18.03;100.00;96332.91;5077114;28;20195;-69
2022/08/03 02:43:05;;;;;;;2.80;2.20;;;;;;;17.94;100.00;96334.25;5076247;28;20226;-69
2022/08/03 02:45:35;;;;;;;3.30;2.47;;;;;;;17.92;100.00;96336.31;5077130;28;20204;-69
2022/08/03 02:48:05;;;;;;;5.40;2.40;;;;;;;17.95;100.00;96329.75;5077069;28;20214;-69
2022/08/03 02:50:34;;;;;;;4.05;2.20;;;;;;;17.92;100.00;96333.66;5076728;28;20742;-69
2022/08/03 02:53:03;;;;;;;3.80;2.42;;;;;;;18.01;100.00;96329.69;5076232;28;20227;-69
2022/08/03 02:55:33;;;;;;;3.63;1.85;;;;;;;17.92;100.00;96327.50;5076852;28;20659;-69
2022/08/03 02:58:00;;;;;;;3.25;1.90;;;;;;;18.00;99.30;96319.22;5076819;28;20196;-69
2022/08/03 03:00:27;;;;;;;6.45;2.25;;;;;;;17.86;100.00;96317.72;5076829;28;20200;-69
2022/08/03 03:02:55;;;;;;;4.15;2.42;;;;;;;17.85;100.00;96321.41;5076139;28;20222;-69
2022/08/03 03:05:22;;;;;;;4.32;2.55;;;;;;;17.75;100.00;96321.09;5076602;28;20200;-69
2022/08/03 03:07:49;;;;;;;3.13;2.25;;;;;;;17.82;100.00;96313.88;5076746;28;20441;-68
2022/08/03 03:10:17;;;;;;;4.90;2.97;;;;;;;17.86;100.00;96317.72;5077250;28;20258;-69
2022/08/03 03:12:45;;;;;;;4.13;2.40;;;;;;;17.88;100.00;96319.16;5075696;28;20238;-69
2022/08/03 03:15:11;;;;;;;6.38;2.08;;;;;;;17.74;100.00;96317.63;5073967;28;20671;-69
2022/08/03 03:17:39;;;;;;;7.25;2.78;;;;;;;17.84;100.00;96322.44;5077219;28;20204;-69
2022/08/03 03:20:08;;;;;;;4.95;2.28;;;;;;;17.80;100.00;96327.41;5076780;28;20250;-69
2022/08/03 03:22:36;;;;;;;3.42;2.10;;;;;;;17.61;100.00;96326.78;5075779;28;20277;-69
2022/08/03 03:25:03;;;;;;;4.85;2.03;;;;;;;17.64;100.00;96327.13;5077102;28;20207;-69
2022/08/03 03:27:31;;;;;;;2.42;2.15;;;;;;;17.60;100.00;96325.13;5076362;28;20325;-69
2022/08/03 03:29:58;;;;;;;3.42;2.08;;;;;;;17.58;100.00;96322.69;5076290;28;20561;-69
2022/08/03 03:32:26;;;;;;;5.68;2.30;;;;;;;17.61;100.00;96326.78;5076052;28;20234;-69
2022/08/03 03:34:53;;;;;;;5.43;2.63;;;;;;;17.47;100.00;96330.56;5076721;28;20200;-69
2022/08/03 03:37:20;;;;;;;3.38;2.33;;;;;;;17.30;100.00;96329.47;5076156;28;20211;-69
2022/08/03 03:39:47;;;;;;;5.10;2.53;;;;;;;17.28;100.00;96327.00;5076651;28;20206;-69
2022/08/03 03:42:13;;;;;;;3.42;2.20;;;;;;;17.27;100.00;96333.38;5076176;28;20215;-69
2022/08/03 03:44:41;;;;;;;5.15;2.10;;;;;;;17.30;100.00;96335.63;5075837;28;20204;-69
2022/08/03 03:47:08;;;;;;;3.28;2.40;;;;;;;17.37;100.00;96336.38;5076838;28;20206;-69
2022/08/03 03:49:34;;;;;;;3.80;2.53;;;;;;;17.31;100.00;96337.25;5076488;28;21227;-69
2022/08/03 03:52:01;;;;;;;7.45;2.60;;;;;;;17.37;100.00;96340.88;5075356;28;20223;-69
2022/08/03 03:54:39;;;;;;;6.18;2.53;;;;;;;17.62;100.00;96334.53;5075603;28;20204;-69
2022/08/03 03:57:06;;;;;;;4.13;2.30;;;;;;;17.52;100.00;96336.88;5075838;28;20366;-68
2022/08/03 03:59:32;;;;;;;4.20;2.13;;;;;;;17.52;100.00;96344.06;5076636;28;20211;-68
2022/08/03 04:02:00;;;;;;;3.85;2.30;;;;;;;17.71;100.00;96345.75;5076625;28;20207;-67
2022/08/03 04:12:40;;;;;;;3.65;2.20;;;;;;;17.56;100.00;96343.41;5053281;28;20716;-67
2022/08/03 04:15:09;;;;;;;3.75;2.25;;;;;;;17.69;99.82;96335.28;5077361;28;20566;-68
2022/08/03 04:17:37;;;;;;;3.50;2.40;;;;;;;17.69;99.70;96343.28;5078917;28;20710;-69
2022/08/03 04:20:04;;;;;;;7.65;2.40;;;;;;;17.55;100.00;96348.94;5079744;28;20199;-69
2022/08/03 04:22:32;;;;;;;5.13;2.05;;;;;;;17.59;100.00;96345.66;5078935;28;20219;-68
2022/08/03 04:25:02;;;;;;;4.53;2.40;;;;;;;17.71;100.00;96346.56;5080026;28;20203;-69
2022/08/03 04:27:33;;;;;;;4.10;2.30;;;;;;;17.76;100.00;96350.19;5079089;28;20731;-69
2022/08/03 04:30:03;;;;;;;3.97;2.10;;;;;;;17.86;100.00;96341.72;5079147;28;20694;-67
2022/08/03 04:32:30;;;;;;;4.47;2.22;;;;;;;17.99;100.00;96347.72;5079214;28;20749;-68
2022/08/03 04:34:58;;;;;;;4.60;2.03;;;;;;;18.06;98.07;96348.50;5079638;28;20200;-68
2022/08/03 04:37:32;;;;;;;2.67;1.88;;;;;;;18.24;97.78;96355.72;5079179;28;20659;-67
2022/08/03 04:40:02;;;;;;;3.83;1.92;;;;;;;18.22;97.06;96358.63;5079239;28;20872;-68
2022/08/03 04:42:30;;;;;;;3.58;2.35;;;;;;;18.15;98.21;96354.34;5078600;28;21082;-68
2022/08/03 04:44:57;;;;;;;2.90;2.33;;;;;;;18.10;99.26;96363.03;5078642;28;20204;-67
2022/08/03 04:47:25;;;;;;;2.88;2.00;;;;;;;18.10;100.00;96364.84;5079553;28;20211;-68
2022/08/03 04:49:52;;;;;;;4.75;2.00;;;;;;;18.19;100.00;96371.56;5079389;28;20852;-69
2022/08/03 04:52:20;;;;;;;2.67;2.17;;;;;;;18.10;100.00;96364.84;5078176;28;20227;-68
2022/08/03 04:54:48;;;;;;;2.75;2.30;;;;;;;18.11;100.00;96369.97;5079168;28;20203;-71
2022/08/03 04:57:14;;;;;;;2.55;2.00;;;;;;;18.35;100.00;96369.16;5079020;28;20211;-71
2022/08/03 04:59:41;;;;;;;6.43;2.30;;;;;;;18.74;98.82;96358.84;5078952;28;20214;-70
2022/08/03 05:02:08;;;;;;;7.10;2.50;;;;;;;18.95;98.44;96361.84;5078459;28;20656;-71
2022/08/03 05:04:34;;;;;;;4.00;2.50;;;;;;;18.98;99.28;96360.59;5078300;28;20265;-71
2022/08/03 05:07:01;;;;;;;5.18;2.80;;;;;;;18.76;100.00;96361.28;5076993;28;20219;-71
2022/08/03 05:09:29;;;;;;;4.47;2.88;;;;;;;18.91;100.00;96359.84;5079072;28;20204;-70
2022/08/03 05:11:55;;;;;;;3.72;2.70;;;;;;;18.91;100.00;96365.19;5078679;28;20227;-71
2022/08/03 05:14:22;;;;;;;4.55;3.00;;;;;;;18.98;100.00;96355.25;5078119;28;20206;-71
2022/08/03 05:16:49;;;;;;;5.32;3.08;;;;;;;19.05;100.00;96355.97;5075302;28;20212;-71
2022/08/03 05:19:15;;;;;;;6.55;3.20;;;;;;;19.17;100.00;96362.19;5078535;28;20214;-70
2022/08/03 05:21:42;;;;;;;7.07;3.50;;;;;;;19.27;100.00;96365.97;5078512;28;20222;-71
2022/08/03 05:24:08;;;;;;;3.90;2.63;;;;;;;19.38;100.00;96362.50;5077930;28;20222;-71
2022/08/03 05:26:36;;;;;;;5.43;2.78;;;;;;;19.57;100.00;96356.06;5078188;28;20200;-70
2022/08/03 05:29:03;;;;;;;9.35;3.60;;;;;;;19.75;100.00;96358.63;5078621;28;20231;-70
2022/08/03 05:31:29;;;;;;;6.43;3.35;;;;;;;19.79;100.00;96360.63;5078221;28;20231;-70
2022/08/03 05:33:57;;;;;;;5.25;3.42;;;;;;;20.06;99.68;96361.03;5077814;28;20215;-71
2022/08/03 05:36:23;;;;;;;4.78;3.10;;;;;;;20.08;100.00;96359.75;5078109;28;20211;-71
2022/08/03 05:38:50;;;;;;;6.40;2.97;;;;;;;20.07;99.53;96363.47;5077905;28;20204;-70
2022/08/03 05:41:16;;;;;;;7.47;3.90;;;;;;;20.18;99.53;96365.34;5078609;28;20266;-71
2022/08/03 05:43:45;;;;;;;5.68;3.25;;;;;;;20.21;97.06;96372.88;5077097;28;20227;-71
2022/08/03 05:46:11;;;;;;;6.20;3.03;;;;;;;20.21;99.67;96365.69;5077730;28;20724;-68
2022/08/03 05:48:38;;;;;;;5.68;3.17;;;;;;;20.18;99.17;96362.66;5078300;28;20220;-71
2022/08/03 05:51:06;;;;;;;4.28;2.78;;;;;;;20.43;97.64;96369.41;5077836;28;20224;-71
2022/08/03 05:53:33;;;;;;;5.85;3.03;;;;;;;20.51;97.81;96365.56;5076895;28;20314;-71
2022/08/03 05:55:59;;;;;;;5.55;2.53;;;;;;;20.73;95.88;96363.91;5077595;28;20215;-71
2022/08/03 05:58:26;;;;;;;5.57;3.20;;;;;;;20.84;95.06;96362.00;5077222;28;20584;-71
2022/08/03 06:00:54;;;;;;;7.03;3.70;;;;;;;20.69;97.17;96357.38;5077363;28;20218;-71
2022/08/03 06:03:20;;;;;;;7.45;3.47;;;;;;;20.73;96.67;96361.25;5075368;28;20224;-71
2022/08/03 06:05:47;;;;;;;9.77;4.20;;;;;;;20.66;97.95;96371.22;5077006;28;20204;-71
2022/08/03 06:08:13;;;;;;;8.07;3.85;;;;;;;20.65;97.33;96367.72;5076382;28;21139;-71
2022/08/03 06:10:40;;;;;;;7.32;4.13;;;;;;;20.77;96.84;96365.06;5077061;28;20199;-71
2022/08/03 06:13:06;;;;;;;6.80;3.33;;;;;;;20.76;97.15;96368.78;5076143;28;20230;-71
2022/08/03 06:15:34;;;;;;;6.85;4.15;;;;;;;20.80;97.03;96364.59;5073170;28;20214;-71
2022/08/03 06:18:02;;;;;;;5.38;3.38;;;;;;;20.80;97.49;96373.44;5076165;28;20204;-71
2022/08/03 06:20:29;;;;;;;8.25;4.15;;;;;;;20.87;96.57;96368.75;5076717;28;20226;-71
2022/08/03 06:22:55;;;;;;;6.40;3.63;;;;;;;21.05;95.03;96368.59;5075079;28;20215;-71
2022/08/03 06:25:22;;;;;;;3.70;2.88;;;;;;;21.09;97.05;96365.22;5076730;28;20207;-71
2022/08/03 06:27:48;;;;;;;6.45;3.67;;;;;;;21.10;96.14;96372.16;5076612;28;20215;-71
2022/08/03 06:30:16;;;;;;;7.75;3.50;;;;;;;21.30;96.08;96377.94;5076384;28;20211;-71
2022/08/03 06:32:42;;;;;;;5.00;3.22;;;;;;;21.31;94.97;96379.56;5075676;28;20224;-71
2022/08/03 06:35:10;;;;;;;6.57;4.00;;;;;;;21.49;96.01;96374.81;5076775;28;20221;-71
2022/08/03 06:37:44;;;;;;;5.20;3.40;;;;;;;21.68;94.33;96375.47;5074725;28;20199;-71
2022/08/03 06:40:12;;;;;;;5.43;3.05;;;;;;;21.63;93.92;96378.03;5077267;28;20207;-71
2022/08/03 06:42:38;;;;;;;6.05;3.80;;;;;;;21.62;98.80;96368.38;5076952;28;20277;-71
2022/08/03 06:45:07;;;;;;;7.03;3.40;;;;;;;21.87;95.14;96374.97;5076732;28;20218;-71
2022/08/03 06:47:34;;;;;;;5.75;3.63;;;;;;;21.93;94.40;96376.69;5076586;28;20210;-71
2022/08/03 06:50:00;;;;;;;4.55;3.08;;;;;;;22.08;93.65;96372.38;5077764;28;20204;-71
2022/08/03 06:52:28;;;;;;;6.13;3.33;;;;;;;22.05;95.26;96372.84;5076217;28;20231;-71
2022/08/03 06:54:55;;;;;;;7.15;3.50;;;;;;;22.29;93.16;96379.72;5076536;28;20200;-71
2022/08/03 06:57:21;;;;;;;7.20;3.30;;;;;;;22.36;93.80;96369.59;5077316;28;20203;-71
2022/08/03 06:59:48;;;;;;;15.15;4.13;;;;;;;22.49;94.68;96373.81;5076600;28;20209;-71
2022/08/03 07:02:15;;;;;;;4.50;3.13;;;;;;;22.58;92.76;96380.38;5075953;28;20319;-71
2022/08/03 07:04:41;;;;;;;5.55;3.53;;;;;;;22.77;93.60;96380.69;5076444;28;20204;-71
2022/08/03 07:07:08;;;;;;;5.38;3.72;;;;;;;22.84;93.56;96380.50;5076596;28;20699;-71
2022/08/03 07:09:35;;;;;;;7.03;3.55;;;;;;;22.88;92.51;96377.03;5076238;28;20683;-71
2022/08/03 07:12:03;;;;;;;8.90;4.07;;;;;;;22.96;92.17;96384.69;5076922;28;20220;-71
2022/08/03 07:14:29;;;;;;;5.82;3.65;;;;;;;23.14;92.03;96384.41;5076280;28;20287;-71
2022/08/03 07:16:56;;;;;;;5.40;3.50;;;;;;;23.27;90.34;96377.81;5076075;28;20200;-71
2022/08/03 07:19:22;;;;;;;13.45;4.07;;;;;;;23.43;92.67;96378.56;5076935;28;20204;-71
2022/08/03 07:21:49;;;;;;;6.18;3.80;;;;;;;23.56;92.64;96372.78;5076754;28;20200;-71
2022/08/03 07:24:15;;;;;;;9.30;3.80;;;;;;;23.50;89.19;96375.66;5076039;28;20199;-71
2022/08/03 07:26:43;;;;;;;6.13;3.47;;;;;;;23.75;88.43;96368.69;5076004;28;20211;-71
2022/08/03 07:29:09;;;;;;;6.30;3.40;;;;;;;23.93;89.94;96373.69;5076634;28;20203;-71
2022/08/03 07:31:36;;;;;;;5.88;3.67;;;;;;;24.05;87.11;96366.25;5075742;28;20310;-71
2022/08/03 07:34:02;;;;;;;5.05;3.50;;;;;;;24.14;83.74;96364.69;5075223;28;20290;-71
2022/08/03 07:36:29;;;;;;;4.43;3.13;;;;;;;24.35;82.79;96361.06;5075983;28;20470;-71
2022/08/03 07:38:56;;;;;;;5.25;3.28;;;;;;;24.52;81.61;96367.97;5075942;28;20199;-71
2022/08/03 07:41:23;;;;;;;5.25;3.08;;;;;;;24.70;78.61;96364.84;5075293;28;20204;-71
2022/08/03 07:43:51;;;;;;;11.30;4.30;;;;;;;24.87;80.77;96365.47;5075212;28;20895;-71
2022/08/03 07:46:17;;;;;;;5.80;2.60;;;;;;;24.93;78.21;96369.81;5075184;28;20204;-71
2022/08/03 07:48:44;;;;;;;2.78;1.80;;;;;;;25.18;74.59;96363.47;5075849;28;20647;-71
2022/08/03 07:51:10;;;;;;;3.40;1.90;;;;;;;25.28;75.59;96363.50;5079669;28;20203;-71
2022/08/03 07:53:37;;;;;;;4.50;1.85;;;;;;;25.37;74.09;96359.22;5079778;28;20216;-71
2022/08/03 07:56:04;;;;;;;2.58;1.67;;;;;;;25.38;74.99;96368.13;5080138;28;20227;-71
2022/08/03 07:58:30;;;;;;;3.22;1.75;;;;;;;25.58;73.44;96357.38;5079658;28;20211;-71
2022/08/03 08:00:58;;;;;;;2.72;1.50;;;;;;;25.77;70.56;96361.22;5079640;28;20674;-71
2022/08/03 08:03:25;;;;;;;1.70;1.60;;;;;;;25.98;68.29;96364.47;5079650;28;20227;-71
2022/08/03 08:05:52;;;;;;;2.22;1.50;;;;;;;25.95;67.00;96365.03;5079338;28;20889;-71
2022/08/03 08:08:19;;;;;;;2.92;1.40;;;;;;;26.05;68.71;96365.00;5079694;28;20203;-71
2022/08/03 08:10:45;;;;;;;2.00;1.30;;;;;;;26.18;65.83;96364.47;5080030;28;20204;-71
2022/08/03 08:13:12;;;;;;;2.85;1.40;;;;;;;26.28;64.45;96366.38;5078827;28;20634;-71
2022/08/03 08:15:38;;;;;;;2.22;1.40;;;;;;;26.30;62.13;96359.63;5079851;28;20208;-71
2022/08/03 08:18:06;;;;;;;1.38;1.23;;;;;;;26.46;62.60;96355.84;5080113;28;20255;-71
2022/08/03 08:20:36;;;;;;;1.80;1.00;;;;;;;26.59;64.33;96356.09;5079942;28;20204;-71
2022/08/03 08:23:04;;;;;;;1.95;1.30;;;;;;;26.75;65.85;96354.16;5079173;28;20222;-71
2022/08/03 08:25:31;;;;;;;1.98;1.33;;;;;;;26.60;63.66;96355.03;5079531;28;20208;-71
2022/08/03 08:28:00;;;;;;;1.33;1.20;;;;;;;26.78;61.78;96359.00;5078851;28;20667;-71
2022/08/03 08:30:27;;;;;;;1.98;1.25;;;;;;;26.74;61.75;96353.34;5079777;28;20585;-71
2022/08/03 08:32:53;;;;;;;1.67;1.40;;;;;;;26.88;61.41;96348.97;5078333;28;20223;-71
2022/08/03 08:35:21;;;;;;;2.47;1.30;;;;;;;27.01;62.88;96344.91;5079557;28;20196;-71
2022/08/03 08:37:48;;;;;;;3.50;1.70;;;;;;;27.13;64.83;96357.84;5079289;28;20211;-71
2022/08/03 08:40:14;;;;;;;2.65;1.60;;;;;;;27.09;64.23;96351.34;5078974;28;20664;-71
2022/08/03 08:42:42;;;;;;;2.45;1.30;;;;;;;27.14;64.03;96345.94;5078595;28;20246;-71
2022/08/03 08:45:10;;;;;;;3.40;1.40;;;;;;;27.32;65.93;96350.72;5079439;28;20219;-71
2022/08/03 08:47:39;;;;;;;6.00;1.20;;;;;;;27.34;65.67;96343.16;5079017;28;20827;-71
2022/08/03 08:50:09;;;;;;;2.00;1.20;;;;;;;27.68;63.93;96354.88;5079019;28;20266;-71
2022/08/03 08:52:41;;;;;;;2.05;1.42;;;;;;;27.98;60.31;96358.19;5077749;28;20300;-71
2022/08/03 08:55:09;;;;;;;2.28;0.95;;;;;;;27.63;59.68;96354.91;5079649;28;20196;-71
2022/08/03 08:57:38;;;;;;;1.50;1.17;;;;;;;27.78;57.88;96352.09;5078903;28;20680;-71
2022/08/03 09:00:08;;;;;;;2.20;1.20;;;;;;;27.98;61.92;96354.69;5077767;28;20211;-71
2022/08/03 09:02:34;;;;;;;3.03;1.30;;;;;;;27.90;57.88;96358.78;5077284;28;20223;-71
2022/08/03 09:05:01;;;;;;;2.00;1.67;;;;;;;28.11;61.08;96349.41;5078463;28;20196;-71
2022/08/03 09:07:28;;;;;;;3.53;1.42;;;;;;;28.21;60.99;96356.66;5078420;28;20218;-71
2022/08/03 09:09:56;;;;;;;1.30;1.20;;;;;;;28.35;58.03;96351.13;5078557;28;20206;-71
2022/08/03 09:12:23;;;;;;;1.50;1.10;;;;;;;28.16;56.05;96354.03;5077091;28;20673;-71
2022/08/03 09:14:49;;;;;;;2.13;1.38;;;;;;;28.37;56.63;96354.38;5076303;28;20204;-71
2022/08/03 09:17:16;;;;;;;2.17;1.33;;;;;;;28.49;58.80;96362.94;5078035;28;20210;-71
2022/08/03 09:19:43;;;;;;;1.48;1.08;;;;;;;28.44;55.24;96360.25;5077630;28;20204;-71
2022/08/03 09:22:12;;;;;;;2.00;1.20;;;;;;;28.52;53.68;96350.69;5077335;28;20211;-71
2022/08/03 09:24:39;;;;;;;1.30;1.08;;;;;;;28.68;54.57;96350.25;5077423;28;20204;-71
2022/08/03 09:27:12;;;;;;;3.35;1.00;;;;;;;28.67;49.04;96348.63;5077526;28;20211;-71
2022/08/03 09:29:39;;;;;;;1.25;0.82;;;;;;;28.95;51.57;96350.53;5077898;28;20207;-71
2022/08/03 09:32:05;;;;;;;1.40;1.05;;;;;;;28.75;48.97;96353.47;5077170;28;20301;-71
2022/08/03 09:34:32;;;;;;;1.10;1.00;;;;;;;28.84;51.75;96354.44;5076722;28;20679;-71
2022/08/03 09:36:59;;;;;;;0.93;0.75;;;;;;;28.88;48.33;96350.06;5077283;28;20193;-71
2022/08/03 09:39:30;;;;;;;1.25;0.90;;;;;;;29.18;46.91;96353.25;5076862;28;20219;-71
2022/08/03 09:42:09;;;;;;;1.75;1.08;;;;;;;29.44;45.81;96351.03;5075410;28;20197;-71
2022/08/03 09:44:37;;;;;;;1.30;0.90;;;;;;;29.59;47.51;96354.34;5076573;28;20496;-71
2022/08/03 09:47:05;;;;;;;1.40;1.20;;;;;;;29.65;50.70;96345.84;5076687;28;20200;-71
2022/08/03 09:49:32;;;;;;;1.75;0.93;;;;;;;29.74;49.26;96344.09;5077957;28;20273;-71
2022/08/03 09:52:02;;;;;;;1.42;0.90;;;;;;;29.79;48.43;96348.66;5077424;28;20199;-71
2022/08/03 09:54:31;;;;;;;1.30;0.88;;;;;;;29.78;46.90;96342.38;5077061;28;20203;-71
2022/08/03 09:56:58;;;;;;;1.35;0.90;;;;;;;29.93;46.94;96344.13;5077929;28;20207;-71
2022/08/03 09:59:28;;;;;;;1.70;0.93;;;;;;;29.95;45.20;96340.00;5077473;28;20210;-71
2022/08/03 10:01:55;;;;;;;2.20;0.90;;;;;;;29.86;45.99;96340.91;5077752;28;20203;-71
2022/08/03 10:04:22;;;;;;;0.75;0.70;;;;;;;29.92;46.60;96345.22;5077193;28;20207;-71
2022/08/03 10:07:03;;;;;;;1.45;0.90;;;;;;;29.86;44.42;96341.78;5077409;28;20687;-71
2022/08/03 10:09:30;;;;;;;0.70;0.65;;;;;;;29.72;45.77;96338.16;5078230;28;20214;-71
2022/08/03 10:11:58;;;;;;;1.90;0.98;;;;;;;29.67;44.40;96334.69;5076275;28;20200;-71
2022/08/03 10:14:30;;;;;;;1.08;0.80;;;;;;;30.01;43.02;96336.09;5076671;28;20210;-71
2022/08/03 10:16:57;;;;;;;1.50;0.98;;;;;;;30.13;44.40;96336.47;5078426;28;20227;-71
2022/08/03 10:19:24;;;;;;;1.42;0.90;;;;;;;30.23;45.62;96337.09;5077761;28;20207;-71
2022/08/03 10:21:55;;;;;;;2.38;1.15;;;;;;;30.25;47.95;96339.50;5076768;28;20789;-71
2022/08/03 10:24:26;;;;;;;1.13;1.00;;;;;;;30.13;47.67;96333.75;5076346;28;21040;-71
2022/08/03 10:26:57;;;;;;;1.10;0.75;;;;;;;30.21;42.04;96333.06;5076865;28;20203;-71
2022/08/03 10:29:27;;;;;;;1.58;0.88;;;;;;;30.38;42.57;96334.09;5077766;28;20200;-71
2022/08/03 10:31:58;;;;;;;0.98;0.85;;;;;;;30.71;44.43;96334.91;5077333;28;20700;-71
2022/08/03 10:34:27;;;;;;;0.80;0.75;;;;;;;30.71;44.94;96326.75;5076497;28;20724;-70
2022/08/03 10:36:58;;;;;;;2.88;1.02;;;;;;;30.68;41.88;96330.06;5076952;28;20200;-70
2022/08/03 10:39:29;;;;;;;1.25;0.90;;;;;;;30.40;40.23;96328.38;5076697;28;20223;-70
2022/08/03 10:41:57;;;;;;;0.90;0.80;;;;;;;30.47;43.23;96318.75;5076037;28;20204;-70
2022/08/03 10:44:32;;;;;;;0.80;0.80;;;;;;;30.65;40.85;96314.34;5076549;28;20207;-71
2022/08/03 10:46:59;;;;;;;1.00;0.73;;;;;;;30.83;42.30;96314.28;5076439;28;20290;-71
2022/08/03 10:49:26;;;;;;;5.28;0.98;;;;;;;30.97;41.15;96309.63;5076589;28;20208;-71
2022/08/03 10:51:53;;;;;;;5.13;0.98;;;;;;;30.98;41.51;96311.25;5076415;28;20202;-71
2022/08/03 10:57:33;;;;;;;0.80;0.70;;;;;;;31.16;38.71;96300.28;5075551;28;21142;-71
2022/08/03 10:57:44;;;;;;;1.02;0.80;;;;;;;31.32;39.51;96296.09;5076498;28;20231;-71
2022/08/03 11:00:13;;;;;;;1.83;0.85;;;;;;;31.08;39.79;96294.72;5076802;28;20921;-72
2022/08/03 11:03:02;;;;;;;1.75;0.93;;;;;;;31.05;39.62;96289.91;5076266;28;20447;-71
2022/08/03 11:05:30;;;;;;;1.33;0.73;;;;;;;31.23;42.70;96289.75;5076617;28;20655;-72
2022/08/03 11:08:23;;;;;;;0.80;0.80;;;;;;;31.39;38.85;96292.97;5076514;28;20208;-72
2022/08/03 11:10:51;;;;;;;1.20;0.88;;;;;;;31.39;38.85;96301.13;5076472;28;20214;-72
2022/08/03 11:13:21;;;;;;;1.27;0.80;;;;;;;31.60;38.95;96298.50;5075105;28;20594;-72
2022/08/03 11:15:52;;;;;;;0.73;0.73;;;;;;;31.61;38.92;96299.31;5075759;28;20597;-72
2022/08/03 11:18:19;;;;;;;1.13;0.77;;;;;;;31.91;39.81;96299.38;5075640;28;20203;-72
2022/08/03 11:20:51;;;;;;;1.10;0.70;;;;;;;31.53;37.43;96292.66;5076399;28;20200;-72
2022/08/03 11:23:20;;;;;;;1.15;0.65;;;;;;;31.68;38.65;96296.97;5075476;28;20222;-72
2022/08/03 11:26:16;;;;;;;0.90;0.70;;;;;;;31.70;39.59;96298.25;5079426;28;20668;-72
2022/08/03 11:28:43;;;;;;;1.67;0.90;;;;;;;31.86;38.47;96293.25;5080373;28;20711;-72
2022/08/03 11:31:56;;;;;;;2.08;0.80;;;;;;;31.75;37.62;96289.97;5080163;28;20234;-72
2022/08/03 11:34:24;;;;;;;1.10;0.85;;;;;;;31.88;39.50;96286.38;5079017;28;20239;-72
2022/08/03 11:37:20;;;;;;;0.60;0.60;;;;;;;32.01;36.97;96288.28;5079705;28;20288;-72
2022/08/03 11:39:48;;;;;;;1.23;0.90;;;;;;;31.76;37.56;96286.13;5080123;28;20238;-72
2022/08/03 11:42:40;;;;;;;1.73;0.82;;;;;;;31.78;36.18;96285.81;5080042;28;20619;-72
2022/08/03 11:45:09;;;;;;;0.70;0.68;;;;;;;32.28;36.00;96286.22;5079083;28;20496;-72